sensor_id;sensor_type;location;lat;lon;timestamp;pressure;altitude;pressure_sealevel;temperature;humidity
32733;BME280;11867;51.198;11.966;2023-04-15T00:00:33;99537.13;;;8.40;100.00
32733;BME280;11867;51.198;11.966;2023-04-15T00:01:34;99538.88;;;8.31;100.00
32733;BME280;11867;51.198;11.966;2023-04-15T00:02:37;99531.06;;;8.19;100.00
32733;BME280;11867;51.198;11.966;2023-04-15T00:03:39;99537.13;;;8.06;100.00
32733;BME280;11867;51.198;11.966;2023-04-15T00:04:43;99535.72;;;8.14;100.00
32733;BME280;11867;51.198;11.966;2023-04-15T00:05:44;99545.66;;;8.28;100.00
32733;BME280;11867;51.198;11.966;2023-04-15T00:06:50;99539.84;;;8.45;100.00
32733;BME280;11867;51.198;11.966;2023-04-15T00:07:53;99538.53;;;8.38;100.00
32733;BME280;11867;51.198;11.966;2023-04-15T00:08:56;99541.31;;;8.27;100.00
32733;BME280;11867;51.198;11.966;2023-04-15T00:09:58;99549.38;;;8.08;100.00
32733;BME280;11867;51.198;11.966;2023-04-15T00:11:01;99537.66;;;7.74;100.00
32733;BME280;11867;51.198;11.966;2023-04-15T00:12:04;99542.31;;;7.68;100.00
32733;BME280;11867;51.198;11.966;2023-04-15T00:13:06;99547.53;;;7.54;100.00
32733;BME280;11867;51.198;11.966;2023-04-15T00:14:08;99533.56;;;7.76;100.00
32733;BME280;11867;51.198;11.966;2023-04-15T00:15:11;99541.38;;;7.88;100.00
32733;BME280;11867;51.198;11.966;2023-04-15T00:16:13;99536.47;;;7.90;100.00
32733;BME280;11867;51.198;11.966;2023-04-15T00:17:16;99541.06;;;7.89;100.00
32733;BME280;11867;51.198;11.966;2023-04-15T00:18:18;99535.44;;;8.15;100.00
32733;BME280;11867;51.198;11.966;2023-04-15T00:19:21;99530.56;;;8.12;100.00
32733;BME280;11867;51.198;11.966;2023-04-15T00:20:23;99532.66;;;7.91;100.00
32733;BME280;11867;51.198;11.966;2023-04-15T00:21:26;99525.44;;;8.11;100.00
32733;BME280;11867;51.198;11.966;2023-04-15T00:22:29;99523.56;;;8.06;100.00
32733;BME280;11867;51.198;11.966;2023-04-15T00:23:32;99528.59;;;7.88;100.00
32733;BME280;11867;51.198;11.966;2023-04-15T00:24:34;99531.50;;;7.97;100.00
32733;BME280;11867;51.198;11.966;2023-04-15T00:25:38;99529.59;;;7.98;100.00
32733;BME280;11867;51.198;11.966;2023-04-15T00:26:40;99523.09;;;7.99;100.00
32733;BME280;11867;51.198;11.966;2023-04-15T00:27:43;99528.53;;;7.99;100.00
32733;BME280;11867;51.198;11.966;2023-04-15T00:28:44;99528.19;;;8.05;100.00
32733;BME280;11867;51.198;11.966;2023-04-15T00:29:47;99529.66;;;7.93;100.00
32733;BME280;11867;51.198;11.966;2023-04-15T00:30:49;99520.81;;;8.11;100.00
32733;BME280;11867;51.198;11.966;2023-04-15T00:31:51;99527.75;;;7.93;100.00
32733;BME280;11867;51.198;11.966;2023-04-15T00:32:53;99520.31;;;8.09;100.00
32733;BME280;11867;51.198;11.966;2023-04-15T00:33:56;99531.25;;;7.99;100.00
32733;BME280;11867;51.198;11.966;2023-04-15T00:34:58;99526.25;;;8.11;100.00
32733;BME280;11867;51.198;11.966;2023-04-15T00:36:03;99528.09;;;8.21;100.00
32733;BME280;11867;51.198;11.966;2023-04-15T00:37:04;99531.25;;;8.28;100.00
32733;BME280;11867;51.198;11.966;2023-04-15T00:38:07;99529.31;;;8.34;100.00
32733;BME280;11867;51.198;11.966;2023-04-15T00:39:09;99529.44;;;8.53;100.00
32733;BME280;11867;51.198;11.966;2023-04-15T00:40:12;99525.13;;;8.52;100.00
32733;BME280;11867;51.198;11.966;2023-04-15T00:41:15;99529.16;;;8.54;100.00
32733;BME280;11867;51.198;11.966;2023-04-15T00:42:18;99522.19;;;8.43;100.00
32733;BME280;11867;51.198;11.966;2023-04-15T00:43:22;99519.88;;;8.60;100.00
32733;BME280;11867;51.198;11.966;2023-04-15T00:44:24;99520.78;;;8.51;100.00
32733;BME280;11867;51.198;11.966;2023-04-15T00:45:27;99515.91;;;8.47;100.00
32733;BME280;11867;51.198;11.966;2023-04-15T00:46:29;99520.25;;;8.48;100.00
32733;BME280;11867;51.198;11.966;2023-04-15T00:47:34;99520.56;;;8.71;100.00
32733;BME280;11867;51.198;11.966;2023-04-15T00:48:37;99524.34;;;8.70;100.00
32733;BME280;11867;51.198;11.966;2023-04-15T00:49:40;99523.09;;;8.33;100.00
32733;BME280;11867;51.198;11.966;2023-04-15T00:50:42;99514.88;;;8.43;100.00
32733;BME280;11867;51.198;11.966;2023-04-15T00:51:45;99513.94;;;8.53;100.00
32733;BME280;11867;51.198;11.966;2023-04-15T00:52:46;99517.81;;;8.47;100.00
32733;BME280;11867;51.198;11.966;2023-04-15T00:53:49;99509.66;;;8.47;100.00
32733;BME280;11867;51.198;11.966;2023-04-15T00:54:52;99507.06;;;8.32;100.00
32733;BME280;11867;51.198;11.966;2023-04-15T00:55:54;99513.50;;;8.46;100.00
32733;BME280;11867;51.198;11.966;2023-04-15T00:56:57;99514.34;;;8.41;100.00
32733;BME280;11867;51.198;11.966;2023-04-15T00:58:01;99516.38;;;8.20;100.00
32733;BME280;11867;51.198;11.966;2023-04-15T00:59:02;99514.09;;;8.33;100.00
32733;BME280;11867;51.198;11.966;2023-04-15T01:00:06;99512.06;;;8.19;100.00
32733;BME280;11867;51.198;11.966;2023-04-15T01:01:09;99505.41;;;8.01;100.00
32733;BME280;11867;51.198;11.966;2023-04-15T01:02:11;99508.84;;;8.12;100.00
32733;BME280;11867;51.198;11.966;2023-04-15T01:03:13;99506.75;;;8.04;100.00
32733;BME280;11867;51.198;11.966;2023-04-15T01:04:16;99512.59;;;8.21;100.00
32733;BME280;11867;51.198;11.966;2023-04-15T01:05:18;99505.13;;;8.37;100.00
32733;BME280;11867;51.198;11.966;2023-04-15T01:06:21;99505.63;;;8.10;100.00
32733;BME280;11867;51.198;11.966;2023-04-15T01:07:24;99508.63;;;8.08;100.00
32733;BME280;11867;51.198;11.966;2023-04-15T01:08:27;99508.13;;;8.01;100.00
32733;BME280;11867;51.198;11.966;2023-04-15T01:09:28;99500.78;;;8.02;100.00
32733;BME280;11867;51.198;11.966;2023-04-15T01:10:32;99511.44;;;7.98;100.00
32733;BME280;11867;51.198;11.966;2023-04-15T01:11:34;99497.91;;;8.22;100.00
32733;BME280;11867;51.198;11.966;2023-04-15T01:12:38;99495.78;;;8.19;100.00
32733;BME280;11867;51.198;11.966;2023-04-15T01:13:40;99491.75;;;8.12;100.00
32733;BME280;11867;51.198;11.966;2023-04-15T01:14:43;99491.28;;;8.04;100.00
32733;BME280;11867;51.198;11.966;2023-04-15T01:15:46;99489.09;;;8.06;100.00
32733;BME280;11867;51.198;11.966;2023-04-15T01:16:48;99493.63;;;8.16;100.00
32733;BME280;11867;51.198;11.966;2023-04-15T01:17:50;99488.00;;;8.37;100.00
32733;BME280;11867;51.198;11.966;2023-04-15T01:18:53;99485.16;;;8.52;100.00
32733;BME280;11867;51.198;11.966;2023-04-15T01:19:55;99485.28;;;8.42;100.00
32733;BME280;11867;51.198;11.966;2023-04-15T01:20:59;99485.28;;;8.42;100.00
32733;BME280;11867;51.198;11.966;2023-04-15T01:22:02;99486.41;;;8.31;100.00
32733;BME280;11867;51.198;11.966;2023-04-15T01:23:05;99484.31;;;8.22;100.00
32733;BME280;11867;51.198;11.966;2023-04-15T01:24:09;99481.66;;;8.17;100.00
32733;BME280;11867;51.198;11.966;2023-04-15T01:25:17;99483.19;;;8.28;100.00
32733;BME280;11867;51.198;11.966;2023-04-15T01:26:20;99483.66;;;8.36;100.00
32733;BME280;11867;51.198;11.966;2023-04-15T01:27:24;99482.91;;;8.30;100.00
32733;BME280;11867;51.198;11.966;2023-04-15T01:28:25;99482.28;;;8.43;100.00
32733;BME280;11867;51.198;11.966;2023-04-15T01:29:29;99483.41;;;8.37;100.00
32733;BME280;11867;51.198;11.966;2023-04-15T01:30:33;99481.13;;;8.50;100.00
32733;BME280;11867;51.198;11.966;2023-04-15T01:31:35;99485.16;;;8.52;100.00
32733;BME280;11867;51.198;11.966;2023-04-15T01:32:38;99491.44;;;8.77;100.00
32733;BME280;11867;51.198;11.966;2023-04-15T01:33:41;99490.06;;;8.74;100.00
32733;BME280;11867;51.198;11.966;2023-04-15T01:34:43;99486.19;;;8.80;100.00
32733;BME280;11867;51.198;11.966;2023-04-15T01:35:46;99481.69;;;8.95;99.77
32733;BME280;11867;51.198;11.966;2023-04-15T01:36:48;99480.50;;;9.01;98.95
32733;BME280;11867;51.198;11.966;2023-04-15T01:37:50;99485.09;;;9.05;98.91
32733;BME280;11867;51.198;11.966;2023-04-15T01:38:53;99482.00;;;8.93;99.21
32733;BME280;11867;51.198;11.966;2023-04-15T01:39:55;99476.44;;;9.03;98.96
32733;BME280;11867;51.198;11.966;2023-04-15T01:40:57;99479.72;;;9.00;98.65
32733;BME280;11867;51.198;11.966;2023-04-15T01:42:01;99477.38;;;9.13;97.97
32733;BME280;11867;51.198;11.966;2023-04-15T01:43:04;99484.31;;;8.81;98.39
32733;BME280;11867;51.198;11.966;2023-04-15T01:44:06;99476.94;;;8.57;99.50
32733;BME280;11867;51.198;11.966;2023-04-15T01:45:09;99479.50;;;8.48;100.00
32733;BME280;11867;51.198;11.966;2023-04-15T01:46:11;99474.31;;;8.52;100.00
32733;BME280;11867;51.198;11.966;2023-04-15T01:47:13;99479.25;;;8.45;100.00
32733;BME280;11867;51.198;11.966;2023-04-15T01:48:16;99469.28;;;8.35;100.00
32733;BME280;11867;51.198;11.966;2023-04-15T01:49:18;99469.44;;;8.49;100.00
32733;BME280;11867;51.198;11.966;2023-04-15T01:50:20;99463.41;;;8.76;99.92
32733;BME280;11867;51.198;11.966;2023-04-15T01:51:22;99469.03;;;8.61;99.66
32733;BME280;11867;51.198;11.966;2023-04-15T01:52:24;99473.34;;;8.62;100.00
32733;BME280;11867;51.198;11.966;2023-04-15T01:53:26;99473.03;;;8.68;99.92
32733;BME280;11867;51.198;11.966;2023-04-15T01:54:29;99471.06;;;8.50;99.96
32733;BME280;11867;51.198;11.966;2023-04-15T01:55:31;99469.81;;;8.66;99.78
32733;BME280;11867;51.198;11.966;2023-04-15T01:56:34;99477.47;;;8.59;99.63
32733;BME280;11867;51.198;11.966;2023-04-15T01:57:37;99476.91;;;8.62;99.18
32733;BME280;11867;51.198;11.966;2023-04-15T01:58:40;99462.63;;;8.76;98.90
32733;BME280;11867;51.198;11.966;2023-04-15T01:59:42;99468.84;;;8.76;98.59
32733;BME280;11867;51.198;11.966;2023-04-15T02:00:44;99470.88;;;8.65;98.09
32733;BME280;11867;51.198;11.966;2023-04-15T02:01:46;99475.03;;;8.58;98.97
32733;BME280;11867;51.198;11.966;2023-04-15T02:02:49;99471.53;;;8.57;99.27
32733;BME280;11867;51.198;11.966;2023-04-15T02:03:51;99471.63;;;8.47;99.68
32733;BME280;11867;51.198;11.966;2023-04-15T02:04:53;99468.81;;;8.57;99.77
32733;BME280;11867;51.198;11.966;2023-04-15T02:05:55;99464.81;;;8.50;99.73
32733;BME280;11867;51.198;11.966;2023-04-15T02:06:57;99464.81;;;8.50;99.41
32733;BME280;11867;51.198;11.966;2023-04-15T02:07:59;99469.06;;;8.56;99.37
32733;BME280;11867;51.198;11.966;2023-04-15T02:09:01;99469.06;;;8.56;99.42
32733;BME280;11867;51.198;11.966;2023-04-15T02:10:05;99468.88;;;8.52;98.53
32733;BME280;11867;51.198;11.966;2023-04-15T02:11:08;99468.38;;;8.45;99.55
32733;BME280;11867;51.198;11.966;2023-04-15T02:12:09;99465.47;;;8.36;100.00
32733;BME280;11867;51.198;11.966;2023-04-15T02:13:13;99474.56;;;8.21;100.00
32733;BME280;11867;51.198;11.966;2023-04-15T02:14:15;99469.25;;;8.11;100.00
32733;BME280;11867;51.198;11.966;2023-04-15T02:15:17;99474.94;;;8.09;100.00
32733;BME280;11867;51.198;11.966;2023-04-15T02:16:19;99464.78;;;8.20;100.00
32733;BME280;11867;51.198;11.966;2023-04-15T02:17:22;99463.53;;;8.42;100.00
32733;BME280;11867;51.198;11.966;2023-04-15T02:18:23;99460.72;;;8.52;100.00
32733;BME280;11867;51.198;11.966;2023-04-15T02:19:26;99460.91;;;8.32;100.00
32733;BME280;11867;51.198;11.966;2023-04-15T02:20:28;99459.75;;;8.38;100.00
32733;BME280;11867;51.198;11.966;2023-04-15T02:21:32;99460.59;;;8.62;99.75
32733;BME280;11867;51.198;11.966;2023-04-15T02:22:35;99457.88;;;8.62;99.65
32733;BME280;11867;51.198;11.966;2023-04-15T02:23:38;99450.59;;;8.82;98.32
32733;BME280;11867;51.198;11.966;2023-04-15T02:24:40;99447.56;;;8.83;97.87
32733;BME280;11867;51.198;11.966;2023-04-15T02:25:42;99449.66;;;8.92;97.68
32733;BME280;11867;51.198;11.966;2023-04-15T02:26:54;99455.66;;;8.88;98.00
32733;BME280;11867;51.198;11.966;2023-04-15T02:27:56;99446.81;;;9.02;97.32
32733;BME280;11867;51.198;11.966;2023-04-15T02:29:00;99444.38;;;9.00;96.49
32733;BME280;11867;51.198;11.966;2023-04-15T02:30:03;99444.88;;;8.83;96.54
32733;BME280;11867;51.198;11.966;2023-04-15T02:31:06;99445.03;;;8.68;97.07
32733;BME280;11867;51.198;11.966;2023-04-15T02:32:08;99442.06;;;8.45;98.63
32733;BME280;11867;51.198;11.966;2023-04-15T02:33:12;99444.53;;;8.42;99.19
32733;BME280;11867;51.198;11.966;2023-04-15T02:34:13;99441.91;;;8.56;99.30
32733;BME280;11867;51.198;11.966;2023-04-15T02:35:16;99450.25;;;8.64;98.11
32733;BME280;11867;51.198;11.966;2023-04-15T02:36:20;99442.75;;;8.56;98.56
32733;BME280;11867;51.198;11.966;2023-04-15T02:37:24;99438.97;;;8.52;99.39
32733;BME280;11867;51.198;11.966;2023-04-15T02:38:28;99435.47;;;8.52;99.10
32733;BME280;11867;51.198;11.966;2023-04-15T02:39:32;99436.84;;;8.49;99.29
32733;BME280;11867;51.198;11.966;2023-04-15T02:40:34;99433.84;;;8.51;99.30
32733;BME280;11867;51.198;11.966;2023-04-15T02:41:36;99432.97;;;8.55;99.09
32733;BME280;11867;51.198;11.966;2023-04-15T02:42:38;99435.03;;;8.63;99.18
32733;BME280;11867;51.198;11.966;2023-04-15T02:43:40;99439.69;;;8.34;99.41
32733;BME280;11867;51.198;11.966;2023-04-15T02:44:43;99434.03;;;8.30;99.92
32733;BME280;11867;51.198;11.966;2023-04-15T02:45:46;99438.31;;;8.36;100.00
32733;BME280;11867;51.198;11.966;2023-04-15T02:46:48;99434.19;;;8.39;100.00
32733;BME280;11867;51.198;11.966;2023-04-15T02:47:53;99435.69;;;8.55;100.00
32733;BME280;11867;51.198;11.966;2023-04-15T02:48:54;99438.66;;;8.78;99.03
32733;BME280;11867;51.198;11.966;2023-04-15T02:49:57;99439.31;;;8.69;98.36
32733;BME280;11867;51.198;11.966;2023-04-15T02:51:10;99436.44;;;8.61;98.82
32733;BME280;11867;51.198;11.966;2023-04-15T02:52:13;99434.16;;;8.68;98.76
32733;BME280;11867;51.198;11.966;2023-04-15T02:53:14;99429.78;;;8.48;98.88
32733;BME280;11867;51.198;11.966;2023-04-15T02:54:18;99436.16;;;8.62;98.99
32733;BME280;11867;51.198;11.966;2023-04-15T02:55:20;99435.13;;;8.58;98.89
32733;BME280;11867;51.198;11.966;2023-04-15T02:56:23;99438.13;;;8.27;99.58
32733;BME280;11867;51.198;11.966;2023-04-15T02:57:24;99436.22;;;7.99;100.00
32733;BME280;11867;51.198;11.966;2023-04-15T02:58:27;99436.56;;;8.21;100.00
32733;BME280;11867;51.198;11.966;2023-04-15T02:59:28;99433.41;;;8.09;100.00
32733;BME280;11867;51.198;11.966;2023-04-15T03:00:32;99439.28;;;8.21;100.00
32733;BME280;11867;51.198;11.966;2023-04-15T03:01:34;99437.19;;;8.13;100.00
32733;BME280;11867;51.198;11.966;2023-04-15T03:02:38;99435.00;;;8.15;100.00
32733;BME280;11867;51.198;11.966;2023-04-15T03:03:40;99431.94;;;8.22;100.00
32733;BME280;11867;51.198;11.966;2023-04-15T03:04:42;99436.31;;;8.18;100.00
32733;BME280;11867;51.198;11.966;2023-04-15T03:05:44;99432.41;;;8.00;100.00
32733;BME280;11867;51.198;11.966;2023-04-15T03:06:46;99428.25;;;7.78;100.00
32733;BME280;11867;51.198;11.966;2023-04-15T03:07:48;99428.75;;;7.85;100.00
32733;BME280;11867;51.198;11.966;2023-04-15T03:08:51;99425.03;;;8.05;100.00
32733;BME280;11867;51.198;11.966;2023-04-15T03:09:52;99420.16;;;8.32;100.00
32733;BME280;11867;51.198;11.966;2023-04-15T03:10:57;99430.34;;;8.45;100.00
32733;BME280;11867;51.198;11.966;2023-04-15T03:12:01;99420.59;;;8.44;100.00
32733;BME280;11867;51.198;11.966;2023-04-15T03:13:03;99419.56;;;8.35;100.00
32733;BME280;11867;51.198;11.966;2023-04-15T03:14:05;99420.34;;;8.40;100.00
32733;BME280;11867;51.198;11.966;2023-04-15T03:15:08;99421.28;;;8.55;100.00
32733;BME280;11867;51.198;11.966;2023-04-15T03:16:12;99417.84;;;8.68;99.52
32733;BME280;11867;51.198;11.966;2023-04-15T03:17:14;99418.84;;;8.53;100.00
32733;BME280;11867;51.198;11.966;2023-04-15T03:18:16;99418.09;;;8.72;100.00
32733;BME280;11867;51.198;11.966;2023-04-15T03:19:19;99408.25;;;8.76;99.30
32733;BME280;11867;51.198;11.966;2023-04-15T03:20:20;99411.25;;;8.74;98.75
32733;BME280;11867;51.198;11.966;2023-04-15T03:21:23;99411.91;;;8.66;99.12
32733;BME280;11867;51.198;11.966;2023-04-15T03:22:25;99408.38;;;8.65;98.56
32733;BME280;11867;51.198;11.966;2023-04-15T03:23:29;99412.41;;;8.68;98.78
32733;BME280;11867;51.198;11.966;2023-04-15T03:24:31;99410.13;;;8.56;99.30
32733;BME280;11867;51.198;11.966;2023-04-15T03:25:33;99404.47;;;8.53;99.36
32733;BME280;11867;51.198;11.966;2023-04-15T03:26:37;99406.31;;;8.33;100.00
32733;BME280;11867;51.198;11.966;2023-04-15T03:27:40;99405.53;;;8.27;100.00
32733;BME280;11867;51.198;11.966;2023-04-15T03:28:42;99398.69;;;8.35;100.00
32733;BME280;11867;51.198;11.966;2023-04-15T03:29:45;99396.88;;;8.25;100.00
32733;BME280;11867;51.198;11.966;2023-04-15T03:30:46;99393.13;;;8.21;100.00
32733;BME280;11867;51.198;11.966;2023-04-15T03:31:51;99400.53;;;8.40;100.00
32733;BME280;11867;51.198;11.966;2023-04-15T03:32:53;99394.53;;;8.14;100.00
32733;BME280;11867;51.198;11.966;2023-04-15T03:33:55;99407.25;;;8.18;100.00
32733;BME280;11867;51.198;11.966;2023-04-15T03:34:57;99404.50;;;8.23;100.00
32733;BME280;11867;51.198;11.966;2023-04-15T03:36:00;99401.38;;;8.35;100.00
32733;BME280;11867;51.198;11.966;2023-04-15T03:37:01;99404.09;;;8.35;100.00
32733;BME280;11867;51.198;11.966;2023-04-15T03:38:04;99400.00;;;8.38;100.00
32733;BME280;11867;51.198;11.966;2023-04-15T03:39:06;99407.63;;;8.36;100.00
32733;BME280;11867;51.198;11.966;2023-04-15T03:40:09;99397.56;;;8.41;100.00
32733;BME280;11867;51.198;11.966;2023-04-15T03:41:11;99401.91;;;8.37;100.00
32733;BME280;11867;51.198;11.966;2023-04-15T03:42:14;99401.31;;;8.45;100.00
32733;BME280;11867;51.198;11.966;2023-04-15T03:43:15;99407.94;;;8.58;100.00
32733;BME280;11867;51.198;11.966;2023-04-15T03:44:18;99410.59;;;8.63;100.00
32733;BME280;11867;51.198;11.966;2023-04-15T03:45:19;99405.81;;;8.74;99.33
32733;BME280;11867;51.198;11.966;2023-04-15T03:46:22;99412.69;;;8.47;99.45
32733;BME280;11867;51.198;11.966;2023-04-15T03:47:25;99407.53;;;8.46;99.78
32733;BME280;11867;51.198;11.966;2023-04-15T03:48:28;99407.66;;;8.31;100.00
32733;BME280;11867;51.198;11.966;2023-04-15T03:49:29;99414.66;;;8.37;100.00
32733;BME280;11867;51.198;11.966;2023-04-15T03:50:32;99412.69;;;8.47;100.00
32733;BME280;11867;51.198;11.966;2023-04-15T03:51:33;99408.31;;;8.52;100.00
32733;BME280;11867;51.198;11.966;2023-04-15T03:52:36;99411.84;;;8.47;100.00
32733;BME280;11867;51.198;11.966;2023-04-15T03:53:38;99408.34;;;8.46;100.00
32733;BME280;11867;51.198;11.966;2023-04-15T03:54:40;99405.28;;;8.53;100.00
32733;BME280;11867;51.198;11.966;2023-04-15T03:55:42;99404.09;;;8.59;100.00
32733;BME280;11867;51.198;11.966;2023-04-15T03:56:45;99399.31;;;8.75;99.01
32733;BME280;11867;51.198;11.966;2023-04-15T03:57:46;99405.03;;;8.74;99.09
32733;BME280;11867;51.198;11.966;2023-04-15T03:58:49;99410.75;;;8.72;99.03
32733;BME280;11867;51.198;11.966;2023-04-15T03:59:50;99406.84;;;8.78;98.35
32733;BME280;11867;51.198;11.966;2023-04-15T04:00:53;99400.69;;;8.73;97.59
32733;BME280;11867;51.198;11.966;2023-04-15T04:02:02;99410.59;;;8.63;99.03
32733;BME280;11867;51.198;11.966;2023-04-15T04:03:06;99407.94;;;8.58;99.79
32733;BME280;11867;51.198;11.966;2023-04-15T04:04:08;99409.50;;;8.64;98.96
32733;BME280;11867;51.198;11.966;2023-04-15T04:05:11;99406.69;;;8.69;99.22
32733;BME280;11867;51.198;11.966;2023-04-15T04:06:13;99415.25;;;8.82;98.85
32733;BME280;11867;51.198;11.966;2023-04-15T04:07:17;99412.22;;;8.64;99.43
32733;BME280;11867;51.198;11.966;2023-04-15T04:08:19;99414.41;;;8.62;100.00
32733;BME280;11867;51.198;11.966;2023-04-15T04:09:22;99414.41;;;8.62;99.98
32733;BME280;11867;51.198;11.966;2023-04-15T04:10:23;99418.31;;;8.75;99.87
32733;BME280;11867;51.198;11.966;2023-04-15T04:11:26;99418.47;;;8.84;99.61
32733;BME280;11867;51.198;11.966;2023-04-15T04:12:28;99418.09;;;8.72;99.88
32733;BME280;11867;51.198;11.966;2023-04-15T04:13:31;99423.16;;;8.78;99.45
32733;BME280;11867;51.198;11.966;2023-04-15T04:14:32;99421.94;;;8.71;99.66
32733;BME280;11867;51.198;11.966;2023-04-15T04:15:35;99425.81;;;8.64;99.73
32733;BME280;11867;51.198;11.966;2023-04-15T04:16:36;99429.09;;;8.61;100.00
32733;BME280;11867;51.198;11.966;2023-04-15T04:17:39;99419.66;;;8.54;100.00
32733;BME280;11867;51.198;11.966;2023-04-15T04:18:42;99426.31;;;8.66;100.00
32733;BME280;11867;51.198;11.966;2023-04-15T04:19:45;99416.09;;;8.58;100.00
32733;BME280;11867;51.198;11.966;2023-04-15T04:20:46;99422.03;;;8.60;100.00
32733;BME280;11867;51.198;11.966;2023-04-15T04:21:49;99428.72;;;8.68;100.00
32733;BME280;11867;51.198;11.966;2023-04-15T04:22:51;99430.19;;;8.60;100.00
32733;BME280;11867;51.198;11.966;2023-04-15T04:23:53;99434.75;;;8.65;100.00
32733;BME280;11867;51.198;11.966;2023-04-15T04:24:57;99430.44;;;8.35;100.00
32733;BME280;11867;51.198;11.966;2023-04-15T04:26:00;99441.75;;;8.18;100.00
32733;BME280;11867;51.198;11.966;2023-04-15T04:27:02;99437.97;;;8.43;100.00
32733;BME280;11867;51.198;11.966;2023-04-15T04:28:05;99432.50;;;8.48;100.00
32733;BME280;11867;51.198;11.966;2023-04-15T04:29:06;99426.44;;;8.56;100.00
32733;BME280;11867;51.198;11.966;2023-04-15T04:30:10;99427.41;;;8.65;100.00
32733;BME280;11867;51.198;11.966;2023-04-15T04:31:11;99426.56;;;8.46;100.00
32733;BME280;11867;51.198;11.966;2023-04-15T04:32:14;99422.53;;;8.43;100.00
32733;BME280;11867;51.198;11.966;2023-04-15T04:33:16;99415.78;;;8.36;100.00
32733;BME280;11867;51.198;11.966;2023-04-15T04:34:20;99416.78;;;8.45;100.00
32733;BME280;11867;51.198;11.966;2023-04-15T04:35:21;99414.66;;;8.42;100.00
32733;BME280;11867;51.198;11.966;2023-04-15T04:36:24;99425.84;;;8.35;100.00
32733;BME280;11867;51.198;11.966;2023-04-15T04:37:26;99419.81;;;8.38;100.00
32733;BME280;11867;51.198;11.966;2023-04-15T04:38:29;99427.06;;;8.48;100.00
32733;BME280;11867;51.198;11.966;2023-04-15T04:39:31;99420.41;;;8.59;100.00
32733;BME280;11867;51.198;11.966;2023-04-15T04:40:33;99425.28;;;8.62;100.00
32733;BME280;11867;51.198;11.966;2023-04-15T04:41:35;99422.59;;;8.57;100.00
32733;BME280;11867;51.198;11.966;2023-04-15T04:42:37;99412.53;;;8.58;100.00
32733;BME280;11867;51.198;11.966;2023-04-15T04:43:40;99417.56;;;8.69;100.00
32733;BME280;11867;51.198;11.966;2023-04-15T04:44:43;99414.09;;;8.64;100.00
32733;BME280;11867;51.198;11.966;2023-04-15T04:45:44;99412.47;;;8.44;100.00
32733;BME280;11867;51.198;11.966;2023-04-15T04:46:47;99403.66;;;8.52;100.00
32733;BME280;11867;51.198;11.966;2023-04-15T04:47:49;99404.47;;;8.53;100.00
32733;BME280;11867;51.198;11.966;2023-04-15T04:48:52;99400.78;;;8.43;100.00
32733;BME280;11867;51.198;11.966;2023-04-15T04:49:55;99404.22;;;8.49;100.00
32733;BME280;11867;51.198;11.966;2023-04-15T04:50:58;99405.28;;;8.53;100.00
32733;BME280;11867;51.198;11.966;2023-04-15T04:51:59;99410.13;;;8.56;100.00
32733;BME280;11867;51.198;11.966;2023-04-15T04:53:02;99408.38;;;8.65;100.00
32733;BME280;11867;51.198;11.966;2023-04-15T04:54:07;99402.94;;;8.65;100.00
32733;BME280;11867;51.198;11.966;2023-04-15T04:55:09;99400.63;;;8.54;100.00
32733;BME280;11867;51.198;11.966;2023-04-15T04:56:12;99405.91;;;8.45;100.00
32733;BME280;11867;51.198;11.966;2023-04-15T04:57:14;99402.63;;;8.48;100.00
32733;BME280;11867;51.198;11.966;2023-04-15T04:58:16;99400.44;;;8.50;100.00
32733;BME280;11867;51.198;11.966;2023-04-15T04:59:19;99411.38;;;8.40;100.00
32733;BME280;11867;51.198;11.966;2023-04-15T05:00:20;99407.66;;;8.31;100.00
32733;BME280;11867;51.198;11.966;2023-04-15T05:01:23;99409.31;;;8.32;100.00
32733;BME280;11867;51.198;11.966;2023-04-15T05:02:24;99412.38;;;8.49;100.00
32733;BME280;11867;51.198;11.966;2023-04-15T05:03:28;99415.69;;;8.46;100.00
32733;BME280;11867;51.198;11.966;2023-04-15T05:04:31;99408.97;;;8.62;100.00
32733;BME280;11867;51.198;11.966;2023-04-15T05:05:33;99416.78;;;8.88;100.00
32733;BME280;11867;51.198;11.966;2023-04-15T05:06:37;99420.84;;;8.91;99.86
32733;BME280;11867;51.198;11.966;2023-04-15T05:07:39;99415.63;;;8.94;99.75
32733;BME280;11867;51.198;11.966;2023-04-15T05:08:41;99416.38;;;9.00;99.65
32733;BME280;11867;51.198;11.966;2023-04-15T05:09:43;99419.47;;;8.93;99.57
32733;BME280;11867;51.198;11.966;2023-04-15T05:10:45;99416.56;;;8.84;99.35
32733;BME280;11867;51.198;11.966;2023-04-15T05:11:47;99416.03;;;8.82;99.24
32733;BME280;11867;51.198;11.966;2023-04-15T05:12:50;99411.75;;;8.57;100.00
32733;BME280;11867;51.198;11.966;2023-04-15T05:13:52;99416.94;;;8.78;100.00
32733;BME280;11867;51.198;11.966;2023-04-15T05:14:54;99422.03;;;8.60;100.00
32733;BME280;11867;51.198;11.966;2023-04-15T05:15:56;99427.53;;;8.55;100.00
32733;BME280;11867;51.198;11.966;2023-04-15T05:16:58;99426.00;;;8.68;100.00
32733;BME280;11867;51.198;11.966;2023-04-15T05:18:00;99423.09;;;8.64;100.00
32733;BME280;11867;51.198;11.966;2023-04-15T05:19:02;99418.69;;;8.44;100.00
32733;BME280;11867;51.198;11.966;2023-04-15T05:20:05;99419.66;;;8.54;100.00
32733;BME280;11867;51.198;11.966;2023-04-15T05:21:09;99420.28;;;8.69;100.00
32733;BME280;11867;51.198;11.966;2023-04-15T05:22:11;99421.00;;;8.56;100.00
32733;BME280;11867;51.198;11.966;2023-04-15T05:23:13;99419.72;;;8.73;100.00
32733;BME280;11867;51.198;11.966;2023-04-15T05:24:15;99417.84;;;8.68;100.00
32733;BME280;11867;51.198;11.966;2023-04-15T05:25:18;99413.59;;;8.62;100.00
32733;BME280;11867;51.198;11.966;2023-04-15T05:26:20;99415.56;;;8.56;100.00
32733;BME280;11867;51.198;11.966;2023-04-15T05:27:23;99409.53;;;8.59;100.00
32733;BME280;11867;51.198;11.966;2023-04-15T05:28:25;99415.44;;;8.66;100.00